Time;durP1;ratioP1;P1;durP2;ratioP2;P2;SDS_P1;SDS_P2;PMS_P1;PMS_P2;Temp;Humidity;BMP_temperature;BMP_pressure;BME280_temperature;BME280_humidity;BME280_pressure;Samples;Min_cycle;Max_cycle;Signal;HPM_P1;HPM_P2
2023/05/24 00:01:56;;;;;;;2.20;2.03;;;21.10;90.50;;;;;;4952604;28;20259;-67
2023/05/24 00:04:23;;;;;;;2.75;1.80;;;21.10;90.70;;;;;;4960167;28;20420;-66
2023/05/24 00:06:53;;;;;;;2.50;2.30;;;21.10;90.70;;;;;;4961194;28;20200;-66
2023/05/24 00:09:21;;;;;;;3.83;1.90;;;21.10;90.80;;;;;;4960291;28;20201;-66
2023/05/24 00:11:49;;;;;;;7.60;2.00;;;21.10;91.00;;;;;;4941294;28;20856;-67
2023/05/24 00:14:17;;;;;;;1.90;1.80;;;21.10;91.00;;;;;;4943041;28;20201;-67
2023/05/24 00:16:45;;;;;;;3.95;2.47;;;21.10;91.10;;;;;;4960150;28;20199;-67
2023/05/24 00:19:17;;;;;;;3.67;2.00;;;21.10;91.20;;;;;;4947409;28;20354;-66
2023/05/24 00:21:47;;;;;;;2.22;2.13;;;21.10;91.20;;;;;;4960168;28;20203;-67
2023/05/24 00:24:15;;;;;;;1.65;1.55;;;21.10;91.30;;;;;;4946699;28;20225;-67
2023/05/24 00:26:43;;;;;;;4.93;2.67;;;21.10;91.40;;;;;;4959912;28;20224;-66
2023/05/24 00:29:14;;;;;;;5.07;2.90;;;21.10;91.50;;;;;;4928436;28;20266;-65
2023/05/24 00:31:41;;;;;;;4.50;2.85;;;21.10;91.70;;;;;;4940642;28;20210;-66
2023/05/24 00:34:08;;;;;;;2.35;2.17;;;21.10;91.80;;;;;;4939719;28;20211;-65
2023/05/24 00:36:36;;;;;;;3.50;2.30;;;21.10;91.90;;;;;;4948498;28;20254;-66
2023/05/24 00:39:04;;;;;;;2.28;2.08;;;21.00;92.00;;;;;;4958625;28;20204;-67
2023/05/24 00:41:31;;;;;;;2.75;2.08;;;21.00;92.10;;;;;;4960548;28;20577;-67
2023/05/24 00:43:59;;;;;;;1.80;1.70;;;21.00;92.20;;;;;;4957150;28;20224;-66
2023/05/24 00:46:29;;;;;;;2.08;1.98;;;21.00;92.30;;;;;;4959758;28;20239;-66
2023/05/24 00:48:57;;;;;;;1.85;1.75;;;20.90;92.50;;;;;;4959413;28;20204;-66
2023/05/24 00:51:26;;;;;;;3.55;2.10;;;21.00;92.50;;;;;;4960927;28;20196;-67
2023/05/24 00:53:54;;;;;;;2.55;2.13;;;20.90;92.60;;;;;;4957978;28;20207;-66
2023/05/24 00:56:22;;;;;;;3.85;2.05;;;20.90;92.80;;;;;;4943383;28;20205;-65
2023/05/24 00:58:53;;;;;;;2.42;2.20;;;20.90;92.90;;;;;;4952709;28;20209;-66
2023/05/24 01:01:20;;;;;;;3.92;2.40;;;20.90;92.90;;;;;;4957707;28;20196;-66
2023/05/24 01:03:50;;;;;;;2.70;2.50;;;20.90;93.00;;;;;;4958058;28;20754;-66
2023/05/24 01:06:19;;;;;;;2.40;2.20;;;21.80;93.50;;;;;;4948911;28;20726;-67
2023/05/24 01:09:07;;;;;;;2.60;2.40;;;20.90;93.10;;;;;;4954060;28;20203;-67
2023/05/24 01:11:45;;;;;;;4.15;2.85;;;20.90;93.10;;;;;;4943174;28;20216;-67
2023/05/24 01:14:22;;;;;;;3.63;3.15;;;20.80;93.20;;;;;;4960084;28;20214;-66
2023/05/24 01:16:56;;;;;;;2.85;2.65;;;20.90;93.30;;;;;;4941174;28;20204;-66
2023/05/24 01:19:53;;;;;;;4.82;2.72;;;20.80;93.30;;;;;;4932988;28;20205;-66
2023/05/24 01:22:48;;;;;;;3.63;2.88;;;20.90;93.40;;;;;;4952088;28;20224;-67
2023/05/24 01:25:27;;;;;;;4.22;2.78;;;20.80;93.30;;;;;;4959361;28;20263;-67
2023/05/24 01:27:57;;;;;;;3.88;3.08;;;20.90;93.40;;;;;;4960764;28;20200;-66
2023/05/24 01:30:25;;;;;;;3.05;2.45;;;20.80;93.40;;;;;;4954457;28;20207;-66
2023/05/24 01:32:52;;;;;;;2.95;2.50;;;20.80;93.40;;;;;;4958315;28;20250;-66
2023/05/24 01:35:20;;;;;;;2.60;2.40;;;20.80;93.30;;;;;;4953218;28;20193;-66
2023/05/24 01:37:47;;;;;;;7.03;2.70;;;20.80;93.30;;;;;;4952642;28;22275;-66
2023/05/24 01:40:14;;;;;;;2.88;2.63;;;20.80;93.30;;;;;;4953724;28;20207;-66
2023/05/24 01:42:46;;;;;;;2.60;2.40;;;20.80;93.30;;;;;;4935805;28;20205;-66
2023/05/24 01:45:34;;;;;;;2.47;2.30;;;20.70;93.30;;;;;;4960216;28;20266;-66
2023/05/24 01:48:10;;;;;;;2.25;2.05;;;20.70;93.30;;;;;;4929682;28;20232;-66
2023/05/24 01:50:45;;;;;;;2.50;2.30;;;20.70;93.20;;;;;;4958292;28;20211;-66
2023/05/24 01:53:19;;;;;;;3.15;2.95;;;20.70;93.20;;;;;;4946643;28;20204;-66
2023/05/24 01:55:49;;;;;;;3.28;3.05;;;20.70;93.20;;;;;;4958861;28;20196;-66
2023/05/24 01:58:19;;;;;;;3.30;3.00;;;20.70;93.20;;;;;;4955774;28;20208;-66
2023/05/24 02:00:48;;;;;;;2.92;2.72;;;20.80;93.30;;;;;;4938111;28;20244;-66
2023/05/24 02:03:16;;;;;;;2.60;2.40;;;20.70;93.30;;;;;;4958086;28;20247;-66
2023/05/24 02:05:44;;;;;;;2.60;2.40;;;20.70;93.30;;;;;;4958200;28;20208;-66
2023/05/24 02:08:12;;;;;;;2.50;2.30;;;20.70;93.30;;;;;;4957893;28;20201;-67
2023/05/24 02:10:40;;;;;;;2.80;2.50;;;20.70;93.30;;;;;;4958785;28;20200;-66
2023/05/24 02:13:08;;;;;;;2.30;2.10;;;20.70;93.30;;;;;;4958750;28;20256;-66
2023/05/24 02:15:35;;;;;;;1.80;1.70;;;20.70;93.30;;;;;;4959904;28;20196;-66
2023/05/24 02:18:06;;;;;;;2.05;1.95;;;20.70;93.30;;;;;;4959236;28;20256;-65
2023/05/24 02:20:36;;;;;;;2.60;2.03;;;20.60;93.30;;;;;;4958115;28;20215;-65
2023/05/24 02:23:03;;;;;;;4.82;2.20;;;20.70;93.40;;;;;;4931003;28;20220;-67
2023/05/24 02:25:31;;;;;;;3.53;2.40;;;20.60;93.40;;;;;;4955380;28;20212;-67
2023/05/24 02:27:59;;;;;;;2.25;2.13;;;20.60;93.40;;;;;;4961486;28;20205;-64
2023/05/24 02:30:27;;;;;;;1.85;1.75;;;20.60;93.40;;;;;;4956257;28;20232;-67
2023/05/24 02:32:54;;;;;;;2.10;1.98;;;20.50;93.40;;;;;;4960009;28;20308;-67
2023/05/24 02:35:23;;;;;;;2.92;2.20;;;20.60;93.50;;;;;;4950935;28;20211;-67
2023/05/24 02:37:50;;;;;;;1.95;1.85;;;20.60;93.50;;;;;;4962014;28;20307;-67
2023/05/24 02:40:17;;;;;;;1.73;1.63;;;20.60;93.50;;;;;;4957962;28;20208;-66
2023/05/24 02:42:45;;;;;;;2.00;1.90;;;20.60;93.50;;;;;;4940520;28;20197;-66
2023/05/24 02:45:12;;;;;;;1.70;1.60;;;20.60;93.60;;;;;;4950555;28;20211;-65
2023/05/24 02:47:39;;;;;;;1.88;1.77;;;20.50;93.50;;;;;;4960432;28;20196;-67
2023/05/24 02:50:07;;;;;;;1.52;1.42;;;20.50;93.60;;;;;;4961579;28;20201;-66
2023/05/24 02:52:36;;;;;;;1.95;1.85;;;20.50;93.60;;;;;;4960354;28;20352;-66
2023/05/24 02:55:06;;;;;;;1.60;1.50;;;20.40;93.60;;;;;;4951981;28;20189;-66
2023/05/24 02:57:34;;;;;;;1.45;1.35;;;20.50;93.70;;;;;;4935262;28;20249;-65
2023/05/24 03:00:01;;;;;;;1.80;1.70;;;20.50;93.70;;;;;;4943328;28;20204;-66
2023/05/24 03:02:32;;;;;;;1.90;1.80;;;20.50;93.70;;;;;;4961273;28;20235;-65
2023/05/24 03:05:01;;;;;;;1.80;1.70;;;20.50;93.70;;;;;;4959295;28;21004;-65
2023/05/24 03:07:29;;;;;;;1.90;1.80;;;20.50;93.60;;;;;;4931510;28;20203;-66
2023/05/24 03:09:58;;;;;;;1.92;1.83;;;20.50;93.60;;;;;;4946458;28;20233;-66
2023/05/24 03:12:26;;;;;;;2.20;2.00;;;20.50;93.50;;;;;;4944209;28;20247;-66
2023/05/24 03:14:53;;;;;;;3.30;1.92;;;20.60;93.60;;;;;;4947052;28;20208;-66
2023/05/24 03:17:20;;;;;;;1.80;1.70;;;20.60;93.60;;;;;;4938249;28;20306;-66
2023/05/24 03:19:49;;;;;;;2.38;1.75;;;20.60;93.50;;;;;;4943667;28;20204;-66
2023/05/24 03:22:16;;;;;;;2.40;2.20;;;20.60;93.50;;;;;;4939671;28;20201;-66
2023/05/24 03:24:47;;;;;;;1.88;1.77;;;20.60;93.40;;;;;;4959076;28;20212;-66
2023/05/24 03:27:16;;;;;;;2.22;2.00;;;20.60;93.50;;;;;;4957136;28;20731;-66
2023/05/24 03:29:43;;;;;;;1.70;1.60;;;20.60;93.50;;;;;;4941779;28;20200;-66
2023/05/24 03:32:11;;;;;;;1.90;1.73;;;20.50;93.40;;;;;;4950775;28;20196;-66
2023/05/24 03:34:38;;;;;;;1.70;1.60;;;20.60;93.50;;;;;;4959445;28;20205;-66
2023/05/24 03:37:05;;;;;;;1.60;1.50;;;20.60;93.80;;;;;;4933021;28;20205;-65
2023/05/24 03:39:32;;;;;;;1.63;1.52;;;20.60;93.40;;;;;;4955789;28;20209;-66
2023/05/24 03:42:27;;;;;;;1.40;1.30;;;20.60;93.40;;;;;;4954504;28;20220;-66
2023/05/24 03:44:54;;;;;;;1.67;1.58;;;20.60;93.40;;;;;;4961527;28;20791;-66
2023/05/24 03:47:21;;;;;;;1.50;1.40;;;20.60;93.40;;;;;;4943167;28;20209;-65
2023/05/24 03:49:48;;;;;;;1.70;1.45;;;20.60;93.40;;;;;;4961026;28;20204;-66
2023/05/24 03:52:15;;;;;;;1.77;1.67;;;20.50;93.40;;;;;;4961103;28;20201;-66
2023/05/24 03:54:44;;;;;;;1.60;1.50;;;20.60;93.40;;;;;;4942844;28;20213;-66
2023/05/24 03:57:11;;;;;;;1.67;1.58;;;20.60;93.30;;;;;;4949312;28;20383;-67
2023/05/24 03:59:40;;;;;;;3.67;1.88;;;20.60;93.30;;;;;;4941160;28;20200;-66
2023/05/24 04:02:07;;;;;;;1.58;1.20;;;20.50;93.20;;;;;;4940561;28;20336;-66
2023/05/24 04:04:35;;;;;;;1.80;1.70;;;20.50;93.20;;;;;;4953057;28;20342;-66
2023/05/24 04:07:03;;;;;;;1.30;1.30;;;20.50;93.20;;;;;;4958840;28;20215;-65
2023/05/24 04:09:30;;;;;;;1.73;1.42;;;20.50;93.20;;;;;;4958613;28;20711;-66
2023/05/24 04:11:57;;;;;;;1.77;1.67;;;20.50;93.30;;;;;;4940232;28;20211;-67
2023/05/24 04:14:24;;;;;;;3.95;1.90;;;20.40;93.20;;;;;;4956149;28;20277;-67
2023/05/24 04:16:53;;;;;;;1.48;1.38;;;20.40;93.20;;;;;;4958898;28;20677;-66
2023/05/24 04:19:21;;;;;;;2.40;2.20;;;20.40;93.20;;;;;;4929051;28;20233;-66
2023/05/24 04:21:48;;;;;;;5.00;2.05;;;20.40;93.20;;;;;;4958890;28;20287;-66
2023/05/24 04:24:15;;;;;;;2.33;2.20;;;20.40;93.10;;;;;;4958178;28;20212;-66
2023/05/24 04:26:46;;;;;;;2.15;1.95;;;20.40;93.10;;;;;;4928354;28;20919;-66
2023/05/24 04:29:14;;;;;;;3.47;2.10;;;20.40;93.00;;;;;;4940492;28;20198;-67
2023/05/24 04:31:43;;;;;;;2.85;1.70;;;20.40;93.00;;;;;;4949000;28;20701;-66
2023/05/24 04:34:13;;;;;;;2.17;1.88;;;20.40;92.90;;;;;;4959989;28;20970;-66
2023/05/24 04:36:40;;;;;;;1.58;1.48;;;20.40;92.90;;;;;;4960416;28;20284;-66
2023/05/24 04:39:10;;;;;;;1.98;1.88;;;20.40;92.90;;;;;;4948924;28;20229;-66
2023/05/24 04:41:37;;;;;;;3.05;1.65;;;21.30;93.40;;;;;;4960262;28;20687;-66
2023/05/24 04:44:04;;;;;;;2.40;1.60;;;20.40;92.90;;;;;;4948084;28;20204;-65
2023/05/24 04:46:34;;;;;;;2.90;1.83;;;20.40;92.90;;;;;;4959160;28;20217;-65
2023/05/24 04:49:02;;;;;;;1.98;1.88;;;20.40;92.80;;;;;;4958998;28;20203;-66
2023/05/24 04:51:30;;;;;;;1.42;1.40;;;20.40;92.80;;;;;;4953484;28;20211;-66
2023/05/24 04:53:57;;;;;;;1.80;1.70;;;20.40;92.80;;;;;;4958413;28;20250;-66
2023/05/24 04:56:24;;;;;;;1.80;1.70;;;20.40;92.80;;;;;;4959258;28;20957;-66
2023/05/24 04:58:51;;;;;;;2.15;2.00;;;20.40;92.80;;;;;;4948026;28;20200;-66
2023/05/24 05:01:18;;;;;;;1.45;1.38;;;20.40;92.80;;;;;;4959169;28;20305;-66
2023/05/24 05:03:46;;;;;;;1.50;1.40;;;20.40;92.80;;;;;;4951954;28;20244;-66
2023/05/24 05:06:14;;;;;;;4.70;3.05;;;20.40;92.80;;;;;;4958871;28;20310;-66
2023/05/24 05:08:42;;;;;;;2.00;1.90;;;20.40;92.70;;;;;;4957240;28;20199;-66
2023/05/24 05:11:09;;;;;;;3.63;2.72;;;20.40;92.70;;;;;;4959157;28;20205;-66
2023/05/24 05:13:36;;;;;;;2.63;2.42;;;20.40;92.60;;;;;;4957865;28;20310;-66
2023/05/24 05:16:04;;;;;;;2.30;2.10;;;20.40;92.50;;;;;;4946964;28;20300;-67
2023/05/24 05:18:31;;;;;;;1.90;1.80;;;20.30;92.40;;;;;;4957899;28;20340;-66
2023/05/24 05:20:58;;;;;;;1.75;1.65;;;20.30;92.40;;;;;;4960300;28;20207;-67
2023/05/24 05:23:25;;;;;;;1.85;1.75;;;20.30;92.30;;;;;;4954271;28;20283;-66
2023/05/24 05:25:54;;;;;;;1.80;1.70;;;20.30;92.30;;;;;;4950951;28;20247;-67
2023/05/24 05:28:21;;;;;;;1.58;1.48;;;20.30;92.30;;;;;;4953995;28;20276;-66
2023/05/24 05:30:48;;;;;;;1.73;1.63;;;20.30;92.30;;;;;;4956150;28;20308;-66
2023/05/24 05:33:15;;;;;;;1.60;1.50;;;20.30;92.30;;;;;;4959811;28;20289;-67
2023/05/24 05:35:42;;;;;;;1.75;1.65;;;20.30;92.30;;;;;;4959266;28;20205;-66
2023/05/24 05:38:09;;;;;;;3.00;1.70;;;20.30;92.30;;;;;;4958419;28;20216;-67
2023/05/24 05:40:37;;;;;;;1.80;1.70;;;20.30;92.30;;;;;;4950860;28;22433;-66
2023/05/24 05:43:07;;;;;;;1.88;1.77;;;20.30;92.30;;;;;;4958968;28;20276;-67
2023/05/24 05:45:34;;;;;;;1.50;1.40;;;20.30;92.30;;;;;;4948120;28;20711;-66
2023/05/24 05:48:01;;;;;;;2.00;1.73;;;20.20;92.30;;;;;;4958792;28;20207;-67
2023/05/24 05:50:28;;;;;;;2.28;1.60;;;20.20;92.30;;;;;;4952783;28;20321;-66
2023/05/24 05:52:56;;;;;;;2.22;1.65;;;20.20;92.30;;;;;;4957957;28;20826;-66
2023/05/24 05:55:24;;;;;;;2.00;1.90;;;20.20;92.40;;;;;;4958467;28;20247;-66
2023/05/24 05:57:51;;;;;;;2.40;2.20;;;20.20;92.40;;;;;;4958413;28;21087;-66
2023/05/24 06:00:22;;;;;;;2.03;1.92;;;20.10;92.30;;;;;;4961592;28;20196;-67
2023/05/24 06:02:49;;;;;;;6.75;2.85;;;20.10;92.30;;;;;;4961690;28;20615;-66
2023/05/24 06:05:16;;;;;;;4.15;2.40;;;20.10;92.40;;;;;;4962608;28;20294;-67
2023/05/24 06:07:44;;;;;;;6.43;2.70;;;20.00;92.30;;;;;;4957545;28;20206;-67
2023/05/24 06:10:12;;;;;;;3.30;2.70;;;20.00;92.40;;;;;;4960227;28;20264;-67
2023/05/24 06:12:39;;;;;;;2.80;2.60;;;20.00;92.40;;;;;;4950537;28;20297;-66
2023/05/24 06:15:08;;;;;;;2.85;2.00;;;19.90;92.40;;;;;;4963609;28;20595;-66
2023/05/24 06:17:36;;;;;;;2.72;2.50;;;19.90;92.50;;;;;;4961624;28;21035;-67
2023/05/24 06:20:08;;;;;;;3.28;2.20;;;19.90;92.50;;;;;;4952389;28;20212;-66
2023/05/24 06:22:36;;;;;;;2.05;1.95;;;19.90;92.50;;;;;;4960657;28;20196;-65
2023/05/24 06:25:04;;;;;;;3.15;2.85;;;19.90;92.50;;;;;;4961717;28;20212;-66
2023/05/24 06:27:31;;;;;;;3.28;3.00;;;19.90;92.50;;;;;;4961533;28;20664;-67
2023/05/24 06:29:58;;;;;;;2.50;2.30;;;19.90;92.40;;;;;;4961849;28;20261;-66
2023/05/24 06:32:25;;;;;;;3.72;2.22;;;20.00;92.40;;;;;;4950006;28;20776;-66
2023/05/24 06:34:53;;;;;;;5.10;2.38;;;20.00;92.40;;;;;;4960130;28;20220;-66
2023/05/24 06:37:24;;;;;;;2.55;2.35;;;20.00;92.40;;;;;;4947114;28;20208;-66
2023/05/24 06:39:51;;;;;;;2.97;2.50;;;20.00;92.30;;;;;;4960098;28;20185;-65
2023/05/24 06:42:18;;;;;;;1.90;1.80;;;20.00;92.20;;;;;;4944825;28;20311;-66
2023/05/24 06:44:46;;;;;;;2.45;2.35;;;20.00;92.10;;;;;;4950307;28;20212;-66
2023/05/24 06:47:13;;;;;;;2.00;1.90;;;20.10;92.10;;;;;;4951994;28;20659;-66
2023/05/24 06:49:40;;;;;;;2.33;2.13;;;20.10;92.00;;;;;;4950161;28;20197;-65
2023/05/24 06:52:09;;;;;;;2.50;2.30;;;20.10;91.90;;;;;;4961342;28;20319;-66
2023/05/24 06:54:36;;;;;;;2.33;1.80;;;20.20;92.00;;;;;;4960878;28;20200;-67
2023/05/24 06:57:04;;;;;;;1.80;1.70;;;20.20;91.90;;;;;;4957796;28;20209;-65
2023/05/24 06:59:31;;;;;;;2.10;1.92;;;20.20;91.90;;;;;;4956842;28;20204;-64
2023/05/24 07:01:58;;;;;;;2.25;1.73;;;20.30;91.90;;;;;;4962643;28;20812;-64
2023/05/24 07:04:25;;;;;;;1.67;1.58;;;20.50;91.80;;;;;;4962152;28;20724;-65
2023/05/24 07:06:53;;;;;;;1.60;1.50;;;20.60;91.80;;;;;;4963159;28;20217;-65
2023/05/24 07:09:21;;;;;;;2.70;1.80;;;20.80;91.70;;;;;;4958760;28;20287;-66
2023/05/24 07:11:51;;;;;;;1.73;1.60;;;20.90;91.60;;;;;;4959683;28;20201;-66
2023/05/24 07:14:18;;;;;;;1.85;1.48;;;21.00;91.50;;;;;;4936346;28;20241;-65
2023/05/24 07:16:47;;;;;;;1.70;1.60;;;21.20;91.40;;;;;;4952089;28;20196;-65
2023/05/24 07:19:14;;;;;;;1.65;1.50;;;21.20;91.30;;;;;;4959231;28;20302;-66
2023/05/24 07:21:42;;;;;;;2.05;1.85;;;21.30;91.20;;;;;;4960965;28;20200;-67
2023/05/24 07:24:09;;;;;;;2.08;1.98;;;21.40;91.10;;;;;;4952392;28;20230;-66
2023/05/24 07:26:38;;;;;;;2.00;1.88;;;21.40;91.00;;;;;;4956590;28;20216;-66
2023/05/24 07:29:05;;;;;;;3.78;1.90;;;21.40;90.90;;;;;;4946981;28;20352;-66
2023/05/24 07:31:33;;;;;;;1.90;1.80;;;21.40;90.80;;;;;;4946892;28;20192;-66
2023/05/24 07:34:00;;;;;;;2.55;2.35;;;21.40;90.80;;;;;;4949313;28;20219;-67
2023/05/24 07:36:31;;;;;;;3.65;2.40;;;21.40;90.70;;;;;;4961235;28;20195;-66
2023/05/24 07:38:59;;;;;;;2.33;2.15;;;21.40;90.60;;;;;;4957222;28;20639;-66
2023/05/24 07:41:27;;;;;;;2.90;2.70;;;21.40;90.50;;;;;;4948677;28;20327;-66
2023/05/24 07:43:56;;;;;;;2.65;2.45;;;21.40;90.20;;;;;;4957237;28;20285;-66
2023/05/24 07:46:23;;;;;;;3.03;2.25;;;21.40;90.10;;;;;;4954398;28;21129;-66
2023/05/24 07:48:51;;;;;;;2.70;2.38;;;21.40;90.00;;;;;;4954755;28;20296;-67
2023/05/24 07:51:19;;;;;;;2.40;2.20;;;21.30;90.00;;;;;;4960249;28;20591;-66
2023/05/24 07:53:46;;;;;;;2.45;2.25;;;21.30;89.90;;;;;;4953806;28;20201;-68
2023/05/24 07:56:13;;;;;;;3.25;2.78;;;21.30;89.90;;;;;;4940381;28;20209;-65
2023/05/24 07:58:42;;;;;;;2.25;2.15;;;21.40;89.90;;;;;;4954738;28;20208;-66
2023/05/24 08:01:11;;;;;;;2.95;2.17;;;21.40;89.90;;;;;;4947328;28;20208;-66
2023/05/24 08:03:39;;;;;;;2.00;1.85;;;21.10;89.70;;;;;;4927609;28;20584;-66
2023/05/24 08:06:06;;;;;;;2.40;2.20;;;21.40;89.80;;;;;;4953286;28;20216;-65
2023/05/24 08:08:34;;;;;;;2.30;2.10;;;21.50;89.70;;;;;;4957142;28;20278;-64
2023/05/24 08:11:01;;;;;;;2.92;2.00;;;21.60;89.50;;;;;;4929823;28;20229;-65
2023/05/24 08:13:29;;;;;;;1.83;1.67;;;21.60;89.30;;;;;;4953055;28;20202;-65
2023/05/24 08:15:57;;;;;;;1.85;1.73;;;21.70;89.20;;;;;;4957136;28;20189;-66
2023/05/24 08:18:25;;;;;;;1.83;1.73;;;21.80;89.20;;;;;;4952994;28;20343;-66
2023/05/24 08:20:52;;;;;;;1.83;1.73;;;22.00;89.10;;;;;;4956086;28;20204;-65
2023/05/24 08:23:20;;;;;;;1.50;1.40;;;22.00;88.90;;;;;;4957977;28;20193;-65
2023/05/24 08:25:47;;;;;;;1.75;1.60;;;22.00;88.70;;;;;;4957823;28;20246;-66
2023/05/24 08:28:15;;;;;;;1.40;1.30;;;22.10;89.40;;;;;;4952726;28;20227;-66
2023/05/24 08:30:42;;;;;;;1.42;1.33;;;22.10;88.50;;;;;;4949566;28;20197;-66
2023/05/24 08:33:10;;;;;;;2.33;2.08;;;22.20;88.40;;;;;;4958347;28;20192;-67
2023/05/24 08:35:39;;;;;;;2.05;1.90;;;22.20;87.90;;;;;;4956892;28;20204;-66
2023/05/24 08:38:06;;;;;;;1.75;1.65;;;22.30;87.90;;;;;;4958319;28;20200;-66
2023/05/24 08:40:33;;;;;;;3.33;1.52;;;22.60;88.00;;;;;;4957026;28;20208;-65
2023/05/24 08:43:02;;;;;;;1.90;1.80;;;22.50;87.60;;;;;;4956763;28;20200;-65
2023/05/24 08:45:31;;;;;;;5.15;2.30;;;22.60;87.50;;;;;;4951287;28;20202;-66
2023/05/24 08:47:59;;;;;;;1.80;1.70;;;22.70;87.40;;;;;;4946842;28;20323;-66
2023/05/24 08:50:27;;;;;;;2.28;2.00;;;22.80;87.40;;;;;;4953160;28;20204;-65
2023/05/24 08:52:57;;;;;;;2.38;2.20;;;22.80;87.90;;;;;;4958910;28;20204;-66
2023/05/24 08:55:25;;;;;;;1.80;1.70;;;22.80;87.00;;;;;;4955541;28;20200;-66
2023/05/24 08:57:55;;;;;;;1.80;1.70;;;22.80;86.90;;;;;;4956700;28;20259;-66
2023/05/24 09:00:23;;;;;;;1.58;1.48;;;22.80;86.80;;;;;;4950736;28;20282;-66
2023/05/24 09:02:51;;;;;;;1.95;1.85;;;22.90;86.70;;;;;;4941610;28;20250;-67
2023/05/24 09:05:20;;;;;;;2.03;1.88;;;22.90;86.40;;;;;;4950249;28;20205;-66
2023/05/24 09:07:49;;;;;;;1.90;1.80;;;23.00;86.20;;;;;;4957796;28;20228;-65
2023/05/24 09:10:21;;;;;;;3.25;1.88;;;23.10;86.10;;;;;;4955544;28;21034;-65
2023/05/24 09:12:51;;;;;;;2.33;1.90;;;23.10;85.80;;;;;;4957460;28;20719;-65
2023/05/24 09:15:19;;;;;;;4.80;2.20;;;23.10;85.60;;;;;;4944903;28;20209;-66
2023/05/24 09:17:46;;;;;;;4.97;2.05;;;23.10;85.30;;;;;;4954455;28;20193;-66
2023/05/24 09:20:14;;;;;;;2.58;1.90;;;23.10;85.20;;;;;;4957352;28;20205;-66
2023/05/24 09:22:42;;;;;;;1.90;1.80;;;23.10;85.10;;;;;;4950639;28;20202;-66
2023/05/24 09:25:12;;;;;;;1.80;1.70;;;23.10;85.00;;;;;;4950739;28;20196;-66
2023/05/24 09:27:41;;;;;;;1.67;1.58;;;23.10;85.00;;;;;;4950813;28;20383;-66
2023/05/24 09:30:11;;;;;;;2.10;1.70;;;23.10;84.90;;;;;;4953765;28;20619;-65
2023/05/24 09:32:38;;;;;;;1.50;1.40;;;23.10;84.80;;;;;;4954728;28;20307;-66
2023/05/24 09:35:09;;;;;;;1.27;1.27;;;23.10;84.70;;;;;;4956392;28;20993;-66
2023/05/24 09:37:39;;;;;;;1.13;1.13;;;23.20;84.80;;;;;;4957213;28;20697;-66
2023/05/24 09:40:13;;;;;;;1.50;1.25;;;23.30;84.70;;;;;;4956329;28;20318;-66
2023/05/24 09:42:42;;;;;;;1.27;1.20;;;23.40;84.60;;;;;;4956804;28;20282;-66
2023/05/24 09:45:10;;;;;;;1.60;1.30;;;23.40;84.50;;;;;;4950335;28;20204;-66
2023/05/24 09:47:39;;;;;;;1.13;1.13;;;23.50;84.50;;;;;;4951185;28;20351;-66
2023/05/24 09:50:12;;;;;;;1.40;1.40;;;23.50;85.00;;;;;;4947128;28;20200;-66
2023/05/24 09:52:39;;;;;;;2.63;1.50;;;23.60;84.30;;;;;;4953447;28;20196;-66
2023/05/24 09:55:12;;;;;;;1.60;1.50;;;23.70;84.20;;;;;;4950880;28;20207;-66
2023/05/24 09:57:41;;;;;;;1.52;1.42;;;23.70;84.10;;;;;;4957260;28;20271;-66
2023/05/24 10:00:16;;;;;;;2.45;1.40;;;23.80;84.00;;;;;;4957395;28;20203;-66
2023/05/24 10:02:44;;;;;;;1.60;1.50;;;23.80;83.80;;;;;;4956821;28;20787;-66
2023/05/24 10:05:12;;;;;;;1.27;1.27;;;23.80;83.60;;;;;;4936553;28;20200;-67
2023/05/24 10:07:41;;;;;;;1.98;1.67;;;23.90;83.50;;;;;;4952711;28;20577;-66
2023/05/24 10:10:10;;;;;;;3.05;2.47;;;23.80;83.00;;;;;;4944394;28;20820;-67
2023/05/24 10:12:41;;;;;;;1.63;1.52;;;23.80;82.60;;;;;;4956242;28;20212;-65
2023/05/24 10:15:11;;;;;;;4.45;2.60;;;23.80;82.50;;;;;;4945101;28;20201;-67
2023/05/24 10:17:38;;;;;;;2.20;2.00;;;23.90;82.30;;;;;;4951827;28;20743;-65
2023/05/24 10:20:07;;;;;;;2.10;2.00;;;23.90;82.10;;;;;;4956534;28;20204;-66
2023/05/24 10:22:41;;;;;;;2.08;1.88;;;23.90;82.00;;;;;;4932981;28;20983;-66
2023/05/24 10:25:11;;;;;;;2.10;1.90;;;24.00;81.70;;;;;;4949476;28;21013;-66
2023/05/24 10:27:38;;;;;;;1.77;1.67;;;24.00;81.20;;;;;;4956987;28;20487;-65
2023/05/24 10:30:16;;;;;;;2.53;1.95;;;24.00;80.80;;;;;;4950389;28;20259;-66
2023/05/24 10:32:45;;;;;;;1.92;1.55;;;24.00;80.60;;;;;;4956204;28;20216;-65
2023/05/24 10:35:13;;;;;;;3.80;2.10;;;24.10;80.70;;;;;;4949490;28;20251;-65
2023/05/24 10:37:41;;;;;;;2.35;2.25;;;24.10;80.60;;;;;;4924441;28;20554;-65
2023/05/24 10:40:18;;;;;;;1.90;1.80;;;24.10;80.60;;;;;;4941648;28;20228;-66
2023/05/24 10:42:46;;;;;;;2.55;2.35;;;24.20;80.80;;;;;;4956714;28;20747;-66
2023/05/24 10:45:34;;;;;;;5.22;2.28;;;24.20;80.70;;;;;;4951608;28;20291;-66
2023/05/24 10:48:07;;;;;;;5.85;1.88;;;24.30;80.70;;;;;;4955788;28;20714;-66
2023/05/24 10:50:35;;;;;;;3.60;2.25;;;24.40;80.80;;;;;;4937732;28;20281;-66
2023/05/24 10:53:12;;;;;;;2.33;2.22;;;24.50;80.80;;;;;;4958536;28;20288;-67
2023/05/24 10:55:53;;;;;;;2.28;2.08;;;24.50;80.80;;;;;;4928413;28;20836;-66
2023/05/24 10:58:23;;;;;;;5.10;2.65;;;24.60;80.80;;;;;;4956609;28;20279;-67
2023/05/24 11:00:53;;;;;;;3.92;2.17;;;24.60;80.50;;;;;;4954062;28;20280;-67
2023/05/24 11:03:23;;;;;;;4.68;2.03;;;24.60;80.40;;;;;;4959731;28;20470;-67
2023/05/24 11:05:53;;;;;;;6.18;2.00;;;24.70;80.50;;;;;;4946369;28;20291;-66
2023/05/24 11:08:32;;;;;;;3.83;2.15;;;24.70;80.40;;;;;;4955136;28;20556;-66
2023/05/24 11:11:04;;;;;;;3.78;1.98;;;24.70;80.40;;;;;;4958480;28;20216;-66
2023/05/24 11:13:32;;;;;;;3.92;2.58;;;24.80;80.20;;;;;;4944082;28;20292;-65
2023/05/24 11:16:02;;;;;;;4.18;2.40;;;24.80;80.00;;;;;;4952338;28;20200;-65
2023/05/24 11:18:29;;;;;;;2.92;2.22;;;24.80;79.90;;;;;;4959257;28;20208;-66
2023/05/24 11:21:00;;;;;;;2.40;2.20;;;24.80;79.90;;;;;;4960050;28;20205;-66
2023/05/24 11:23:28;;;;;;;2.38;2.10;;;24.80;79.60;;;;;;4952859;28;20235;-66
2023/05/24 11:25:57;;;;;;;1.92;1.83;;;24.80;79.30;;;;;;4942759;28;20714;-66
2023/05/24 11:28:24;;;;;;;1.90;1.80;;;24.90;79.20;;;;;;4956972;28;20207;-66
2023/05/24 11:30:51;;;;;;;1.75;1.65;;;25.00;79.10;;;;;;4959967;28;21238;-65
2023/05/24 11:33:22;;;;;;;2.00;1.90;;;25.00;79.60;;;;;;4960170;28;20284;-65
2023/05/24 11:35:50;;;;;;;2.28;2.10;;;25.00;78.70;;;;;;4952872;28;20200;-67
2023/05/24 11:38:19;;;;;;;2.70;1.88;;;25.10;78.50;;;;;;4954069;28;20604;-65
2023/05/24 11:40:48;;;;;;;2.92;2.65;;;25.10;78.20;;;;;;4957823;28;20247;-66
2023/05/24 11:43:18;;;;;;;3.97;2.90;;;25.10;77.80;;;;;;4958506;28;20203;-65
2023/05/24 11:45:48;;;;;;;2.60;2.40;;;25.10;77.60;;;;;;4939046;28;20205;-66
2023/05/24 11:48:16;;;;;;;2.67;2.47;;;24.90;77.10;;;;;;4957770;28;20217;-66
2023/05/24 11:50:47;;;;;;;4.40;2.60;;;25.10;77.10;;;;;;4959963;28;20665;-66
2023/05/24 11:53:16;;;;;;;2.38;2.28;;;25.10;76.90;;;;;;4958675;28;20283;-66
2023/05/24 11:55:43;;;;;;;2.90;2.60;;;25.20;77.00;;;;;;4948199;28;20350;-66
2023/05/24 11:58:17;;;;;;;3.13;2.08;;;25.20;76.80;;;;;;4951208;28;20721;-65
2023/05/24 12:00:44;;;;;;;1.83;1.73;;;25.20;76.50;;;;;;4941173;28;20511;-65
2023/05/24 12:03:11;;;;;;;2.15;2.00;;;25.20;76.40;;;;;;4956527;28;20238;-66
2023/05/24 12:05:39;;;;;;;2.28;2.00;;;25.30;76.40;;;;;;4959590;28;20196;-67
2023/05/24 12:08:11;;;;;;;2.30;2.20;;;25.30;76.20;;;;;;4958562;28;20236;-67
2023/05/24 12:10:39;;;;;;;3.50;1.90;;;25.40;76.20;;;;;;4958828;28;20451;-67
2023/05/24 12:13:20;;;;;;;3.13;2.03;;;25.40;76.10;;;;;;4957423;28;20196;-67
2023/05/24 12:15:49;;;;;;;1.92;1.77;;;25.40;75.90;;;;;;4959719;28;20210;-66
2023/05/24 12:18:20;;;;;;;1.80;1.70;;;25.50;75.70;;;;;;4947901;28;20282;-66
2023/05/24 12:20:48;;;;;;;3.55;2.63;;;25.50;75.50;;;;;;4959491;28;20200;-66
2023/05/24 12:23:18;;;;;;;2.13;1.95;;;25.50;75.20;;;;;;4956969;28;20258;-66
2023/05/24 12:25:45;;;;;;;2.67;2.47;;;25.50;75.20;;;;;;4957513;28;20199;-66
2023/05/24 12:28:13;;;;;;;2.65;2.40;;;25.60;75.10;;;;;;4946738;28;20228;-66
2023/05/24 12:30:42;;;;;;;3.13;2.10;;;25.60;74.90;;;;;;4951401;28;21140;-66
2023/05/24 12:33:10;;;;;;;3.95;2.75;;;25.60;74.60;;;;;;4956532;28;20605;-66
2023/05/24 12:35:37;;;;;;;3.47;3.17;;;25.60;74.00;;;;;;4948253;28;20216;-67
2023/05/24 12:38:08;;;;;;;6.55;3.55;;;25.60;73.40;;;;;;4950845;28;20873;-66
2023/05/24 12:40:36;;;;;;;6.95;3.40;;;25.50;73.30;;;;;;4950192;28;20208;-66
2023/05/24 12:43:04;;;;;;;5.88;3.40;;;25.40;73.40;;;;;;4958101;28;20228;-66
2023/05/24 12:45:32;;;;;;;6.13;3.22;;;25.40;73.60;;;;;;4955144;28;20456;-66
2023/05/24 12:48:01;;;;;;;5.72;3.40;;;25.40;73.80;;;;;;4959243;28;20348;-66
2023/05/24 12:50:28;;;;;;;4.03;3.33;;;25.30;73.90;;;;;;4957388;28;20302;-66
2023/05/24 12:52:56;;;;;;;3.13;2.55;;;25.30;73.90;;;;;;4958404;28;21939;-67
2023/05/24 12:55:25;;;;;;;2.65;2.50;;;25.30;74.00;;;;;;4958192;28;20322;-66
2023/05/24 12:57:54;;;;;;;2.60;2.40;;;25.30;74.20;;;;;;4957702;28;20242;-66